createdAt,value
2018-03-28T20:47:33.375Z,7.80
2018-03-28T20:50:00.057Z,8.00
2018-03-28T20:52:27.460Z,7.90
2018-03-28T20:54:54.108Z,7.80
2018-03-28T20:57:20.723Z,8.20
2018-03-28T20:59:47.348Z,7.70
2018-03-28T21:02:13.938Z,8.00
2018-03-28T21:04:41.590Z,7.90
2018-03-28T21:07:08.178Z,7.70
2018-03-28T21:09:34.824Z,7.70
2018-03-28T21:12:01.475Z,8.50
2018-03-28T21:14:28.260Z,7.40
2018-03-28T21:16:54.858Z,8.10
2018-03-28T21:19:21.469Z,7.90
2018-03-28T21:21:48.097Z,7.90
2018-03-28T21:24:15.438Z,7.90
2018-03-28T21:26:42.819Z,7.70
2018-03-28T21:29:09.501Z,7.60
2018-03-28T21:31:36.157Z,7.70
2018-03-28T21:34:02.783Z,7.40
2018-03-28T21:36:30.185Z,7.40
2018-03-28T21:38:57.519Z,7.30
2018-03-28T21:41:25.531Z,7.30
2018-03-28T21:43:53.074Z,7.70
2018-03-28T21:46:19.736Z,7.20
2018-03-28T21:48:46.368Z,7.00
2018-03-28T21:51:12.959Z,6.90
2018-03-28T21:53:40.550Z,6.90
2018-03-28T21:56:08.159Z,6.80
2018-03-28T21:58:34.863Z,7.10
2018-03-28T22:01:01.460Z,6.90
2018-03-28T22:03:28.155Z,6.70
2018-03-28T22:05:54.738Z,7.10
2018-03-28T22:08:22.094Z,6.90
2018-03-28T22:10:48.776Z,6.70
2018-03-28T22:13:15.406Z,7.40
2018-03-28T22:15:42.050Z,7.00
2018-03-28T22:18:08.649Z,6.90
2018-03-28T22:20:35.241Z,6.60
2018-03-28T22:23:02.787Z,6.90
2018-03-28T22:25:29.418Z,6.90
2018-03-28T22:27:56.027Z,6.80
2018-03-28T22:30:22.686Z,6.80
2018-03-28T22:32:49.336Z,6.70
2018-03-28T22:35:15.938Z,6.60
2018-03-28T22:37:42.522Z,6.80
2018-03-28T22:40:09.113Z,6.70
2018-03-28T22:42:35.692Z,6.70
2018-03-28T22:45:02.353Z,6.70
2018-03-28T22:47:28.970Z,6.80
2018-03-28T22:49:55.560Z,6.70
2018-03-28T22:52:22.180Z,6.40
2018-03-28T22:54:48.789Z,6.70
2018-03-28T22:57:15.480Z,6.70
2018-03-28T22:59:42.068Z,6.60
2018-03-28T23:02:08.702Z,6.50
2018-03-28T23:04:36.171Z,6.50
2018-03-28T23:07:03.528Z,6.60
2018-03-28T23:09:30.932Z,6.60
2018-03-28T23:11:57.565Z,6.50
2018-03-28T23:14:24.166Z,6.40
2018-03-28T23:16:50.900Z,6.40
2018-03-28T23:19:17.514Z,6.50
2018-03-28T23:21:44.136Z,6.40
2018-03-28T23:24:10.789Z,6.30
2018-03-28T23:26:37.432Z,6.20
2018-03-28T23:29:04.162Z,6.20
2018-03-28T23:31:30.759Z,6.50
2018-03-28T23:33:57.423Z,6.30
2018-03-28T23:36:24.561Z,6.20
2018-03-28T23:38:51.218Z,6.30
2018-03-28T23:41:17.810Z,6.20
2018-03-28T23:43:44.398Z,6.10
2018-03-28T23:46:10.977Z,6.20
2018-03-28T23:48:38.394Z,6.20
2018-03-28T23:51:05.082Z,6.10
2018-03-28T23:53:31.715Z,6.20
2018-03-28T23:55:58.347Z,6.30
2018-03-28T23:58:24.938Z,6.60
